sensor_id;sensor_type;location;lat;lon;timestamp;P1;durP1;ratioP1;P2;durP2;ratioP2
34200;SDS011;20469;55.638;37.670;2022-09-16T00:00:53;14.93;;;9.73;;
34200;SDS011;20469;55.638;37.670;2022-09-16T00:03:21;11.60;;;9.20;;
34200;SDS011;20469;55.638;37.670;2022-09-16T00:05:50;13.95;;;10.80;;
34200;SDS011;20469;55.638;37.670;2022-09-16T00:08:19;14.35;;;9.85;;
34200;SDS011;20469;55.638;37.670;2022-09-16T00:10:48;14.07;;;9.10;;
34200;SDS011;20469;55.638;37.670;2022-09-16T00:13:18;13.77;;;9.52;;
34200;SDS011;20469;55.638;37.670;2022-09-16T00:15:47;11.93;;;8.75;;
34200;SDS011;20469;55.638;37.670;2022-09-16T00:18:17;14.38;;;9.57;;
34200;SDS011;20469;55.638;37.670;2022-09-16T00:20:49;15.32;;;9.77;;
34200;SDS011;20469;55.638;37.670;2022-09-16T00:23:18;13.73;;;9.80;;
34200;SDS011;20469;55.638;37.670;2022-09-16T00:25:49;13.63;;;9.65;;
34200;SDS011;20469;55.638;37.670;2022-09-16T00:28:19;12.13;;;9.45;;
34200;SDS011;20469;55.638;37.670;2022-09-16T00:30:48;13.80;;;9.45;;
34200;SDS011;20469;55.638;37.670;2022-09-16T00:33:16;11.20;;;9.30;;
34200;SDS011;20469;55.638;37.670;2022-09-16T00:35:45;13.55;;;9.63;;
34200;SDS011;20469;55.638;37.670;2022-09-16T00:38:13;15.55;;;9.13;;
34200;SDS011;20469;55.638;37.670;2022-09-16T00:40:44;11.70;;;8.95;;
34200;SDS011;20469;55.638;37.670;2022-09-16T00:43:13;17.30;;;9.80;;
34200;SDS011;20469;55.638;37.670;2022-09-16T00:45:43;15.52;;;9.80;;
34200;SDS011;20469;55.638;37.670;2022-09-16T00:48:14;13.68;;;9.73;;
34200;SDS011;20469;55.638;37.670;2022-09-16T00:53:36;16.98;;;9.68;;
34200;SDS011;20469;55.638;37.670;2022-09-16T00:56:09;14.27;;;9.65;;
34200;SDS011;20469;55.638;37.670;2022-09-16T00:58:42;14.70;;;9.30;;
34200;SDS011;20469;55.638;37.670;2022-09-16T01:01:14;14.55;;;9.77;;
34200;SDS011;20469;55.638;37.670;2022-09-16T01:03:45;13.68;;;9.02;;
34200;SDS011;20469;55.638;37.670;2022-09-16T01:06:16;13.00;;;9.20;;
34200;SDS011;20469;55.638;37.670;2022-09-16T01:08:45;14.35;;;9.65;;
34200;SDS011;20469;55.638;37.670;2022-09-16T01:11:15;13.63;;;9.95;;
34200;SDS011;20469;55.638;37.670;2022-09-16T01:13:43;13.80;;;9.80;;
34200;SDS011;20469;55.638;37.670;2022-09-16T01:16:19;14.43;;;9.77;;
34200;SDS011;20469;55.638;37.670;2022-09-16T01:19:03;17.63;;;10.30;;
34200;SDS011;20469;55.638;37.670;2022-09-16T01:21:44;13.45;;;9.63;;
34200;SDS011;20469;55.638;37.670;2022-09-16T01:30:12;15.05;;;10.20;;
34200;SDS011;20469;55.638;37.670;2022-09-16T01:33:02;15.23;;;10.00;;
34200;SDS011;20469;55.638;37.670;2022-09-16T01:35:38;17.75;;;9.73;;
34200;SDS011;20469;55.638;37.670;2022-09-16T01:44:09;16.73;;;9.88;;
34200;SDS011;20469;55.638;37.670;2022-09-16T01:46:58;19.80;;;11.18;;
34200;SDS011;20469;55.638;37.670;2022-09-16T01:49:36;17.80;;;10.73;;
34200;SDS011;20469;55.638;37.670;2022-09-16T01:52:13;15.95;;;10.90;;
34200;SDS011;20469;55.638;37.670;2022-09-16T01:54:49;15.05;;;10.60;;
34200;SDS011;20469;55.638;37.670;2022-09-16T01:57:30;16.50;;;11.15;;
34200;SDS011;20469;55.638;37.670;2022-09-16T02:00:07;15.73;;;10.88;;
34200;SDS011;20469;55.638;37.670;2022-09-16T02:02:39;14.60;;;10.25;;
34200;SDS011;20469;55.638;37.670;2022-09-16T02:05:26;14.82;;;10.82;;
34200;SDS011;20469;55.638;37.670;2022-09-16T02:08:20;15.25;;;10.02;;
34200;SDS011;20469;55.638;37.670;2022-09-16T02:10:54;16.63;;;10.80;;
34200;SDS011;20469;55.638;37.670;2022-09-16T02:13:27;16.58;;;10.77;;
34200;SDS011;20469;55.638;37.670;2022-09-16T02:15:59;13.60;;;10.23;;
34200;SDS011;20469;55.638;37.670;2022-09-16T02:18:32;15.38;;;9.93;;
34200;SDS011;20469;55.638;37.670;2022-09-16T02:21:03;15.07;;;10.35;;
34200;SDS011;20469;55.638;37.670;2022-09-16T02:23:39;14.18;;;10.63;;
34200;SDS011;20469;55.638;37.670;2022-09-16T02:26:10;16.70;;;10.52;;
34200;SDS011;20469;55.638;37.670;2022-09-16T02:28:40;12.75;;;9.48;;
34200;SDS011;20469;55.638;37.670;2022-09-16T02:31:10;17.83;;;10.75;;
34200;SDS011;20469;55.638;37.670;2022-09-16T02:33:50;14.65;;;10.15;;
34200;SDS011;20469;55.638;37.670;2022-09-16T02:36:24;13.82;;;9.20;;
34200;SDS011;20469;55.638;37.670;2022-09-16T02:38:55;13.15;;;9.95;;
34200;SDS011;20469;55.638;37.670;2022-09-16T02:41:28;13.35;;;9.68;;
34200;SDS011;20469;55.638;37.670;2022-09-16T02:43:55;14.00;;;9.73;;
34200;SDS011;20469;55.638;37.670;2022-09-16T02:46:24;13.07;;;9.57;;
34200;SDS011;20469;55.638;37.670;2022-09-16T02:49:06;13.48;;;9.40;;
34200;SDS011;20469;55.638;37.670;2022-09-16T02:57:15;15.88;;;9.70;;
34200;SDS011;20469;55.638;37.670;2022-09-16T02:59:43;17.60;;;10.35;;
34200;SDS011;20469;55.638;37.670;2022-09-16T03:02:11;15.32;;;10.18;;
34200;SDS011;20469;55.638;37.670;2022-09-16T03:04:39;14.45;;;9.75;;
34200;SDS011;20469;55.638;37.670;2022-09-16T03:07:07;14.90;;;10.05;;
34200;SDS011;20469;55.638;37.670;2022-09-16T03:09:38;15.52;;;9.43;;
34200;SDS011;20469;55.638;37.670;2022-09-16T03:12:14;12.70;;;9.40;;
34200;SDS011;20469;55.638;37.670;2022-09-16T03:15:04;14.10;;;10.20;;
34200;SDS011;20469;55.638;37.670;2022-09-16T03:20:55;13.35;;;9.02;;
34200;SDS011;20469;55.638;37.670;2022-09-16T03:23:47;13.20;;;9.45;;
34200;SDS011;20469;55.638;37.670;2022-09-16T03:26:35;14.63;;;9.60;;
34200;SDS011;20469;55.638;37.670;2022-09-16T03:29:20;14.27;;;10.00;;
34200;SDS011;20469;55.638;37.670;2022-09-16T03:32:03;12.27;;;9.35;;
34200;SDS011;20469;55.638;37.670;2022-09-16T03:34:49;13.52;;;10.07;;
34200;SDS011;20469;55.638;37.670;2022-09-16T03:37:20;16.27;;;10.30;;
34200;SDS011;20469;55.638;37.670;2022-09-16T03:39:50;15.30;;;10.07;;
34200;SDS011;20469;55.638;37.670;2022-09-16T03:42:19;12.73;;;9.55;;
34200;SDS011;20469;55.638;37.670;2022-09-16T03:44:48;14.15;;;10.27;;
34200;SDS011;20469;55.638;37.670;2022-09-16T03:47:16;13.52;;;9.30;;
34200;SDS011;20469;55.638;37.670;2022-09-16T03:49:43;15.23;;;10.00;;
34200;SDS011;20469;55.638;37.670;2022-09-16T03:52:11;13.45;;;9.55;;
34200;SDS011;20469;55.638;37.670;2022-09-16T03:54:38;12.43;;;9.60;;
34200;SDS011;20469;55.638;37.670;2022-09-16T03:57:06;11.82;;;9.55;;
34200;SDS011;20469;55.638;37.670;2022-09-16T03:59:33;12.05;;;9.32;;
34200;SDS011;20469;55.638;37.670;2022-09-16T04:02:01;11.77;;;9.77;;
34200;SDS011;20469;55.638;37.670;2022-09-16T04:04:28;11.18;;;9.55;;
34200;SDS011;20469;55.638;37.670;2022-09-16T04:06:56;13.45;;;9.00;;
34200;SDS011;20469;55.638;37.670;2022-09-16T04:09:23;13.35;;;9.63;;
34200;SDS011;20469;55.638;37.670;2022-09-16T04:11:51;13.73;;;9.50;;
34200;SDS011;20469;55.638;37.670;2022-09-16T04:14:18;13.18;;;9.57;;
34200;SDS011;20469;55.638;37.670;2022-09-16T04:16:46;14.70;;;9.68;;
34200;SDS011;20469;55.638;37.670;2022-09-16T04:19:13;17.17;;;10.68;;
34200;SDS011;20469;55.638;37.670;2022-09-16T04:21:41;13.93;;;10.50;;
34200;SDS011;20469;55.638;37.670;2022-09-16T04:24:08;13.43;;;9.77;;
34200;SDS011;20469;55.638;37.670;2022-09-16T04:26:39;14.32;;;10.38;;
34200;SDS011;20469;55.638;37.670;2022-09-16T04:29:08;16.15;;;9.77;;
34200;SDS011;20469;55.638;37.670;2022-09-16T04:31:35;12.13;;;9.98;;
34200;SDS011;20469;55.638;37.670;2022-09-16T04:34:03;14.10;;;10.55;;
34200;SDS011;20469;55.638;37.670;2022-09-16T04:36:32;16.58;;;10.10;;
34200;SDS011;20469;55.638;37.670;2022-09-16T04:38:59;12.85;;;10.65;;
34200;SDS011;20469;55.638;37.670;2022-09-16T04:41:27;15.15;;;9.90;;
34200;SDS011;20469;55.638;37.670;2022-09-16T04:43:55;13.73;;;10.02;;
34200;SDS011;20469;55.638;37.670;2022-09-16T04:46:25;15.30;;;10.75;;
34200;SDS011;20469;55.638;37.670;2022-09-16T04:48:55;13.00;;;9.88;;
34200;SDS011;20469;55.638;37.670;2022-09-16T04:51:24;13.48;;;10.23;;
34200;SDS011;20469;55.638;37.670;2022-09-16T04:53:54;18.23;;;10.60;;
34200;SDS011;20469;55.638;37.670;2022-09-16T04:56:24;12.23;;;9.82;;
34200;SDS011;20469;55.638;37.670;2022-09-16T04:58:53;15.55;;;10.68;;
34200;SDS011;20469;55.638;37.670;2022-09-16T05:01:24;14.60;;;10.35;;
34200;SDS011;20469;55.638;37.670;2022-09-16T05:03:55;12.32;;;10.32;;
34200;SDS011;20469;55.638;37.670;2022-09-16T05:06:27;15.05;;;10.43;;
34200;SDS011;20469;55.638;37.670;2022-09-16T05:08:58;13.18;;;10.07;;
34200;SDS011;20469;55.638;37.670;2022-09-16T05:11:28;16.17;;;10.25;;
34200;SDS011;20469;55.638;37.670;2022-09-16T05:13:57;15.95;;;11.05;;
34200;SDS011;20469;55.638;37.670;2022-09-16T05:16:26;13.90;;;10.15;;
34200;SDS011;20469;55.638;37.670;2022-09-16T05:18:55;15.35;;;10.40;;
34200;SDS011;20469;55.638;37.670;2022-09-16T05:21:27;16.52;;;11.73;;
34200;SDS011;20469;55.638;37.670;2022-09-16T05:23:54;13.63;;;10.70;;
34200;SDS011;20469;55.638;37.670;2022-09-16T05:26:28;14.87;;;10.03;;
34200;SDS011;20469;55.638;37.670;2022-09-16T05:28:59;16.73;;;10.13;;
34200;SDS011;20469;55.638;37.670;2022-09-16T05:31:30;13.77;;;10.82;;
34200;SDS011;20469;55.638;37.670;2022-09-16T05:34:02;14.65;;;10.85;;
34200;SDS011;20469;55.638;37.670;2022-09-16T05:36:40;14.35;;;10.40;;
34200;SDS011;20469;55.638;37.670;2022-09-16T05:39:09;14.43;;;11.18;;
34200;SDS011;20469;55.638;37.670;2022-09-16T05:41:51;15.93;;;11.05;;
34200;SDS011;20469;55.638;37.670;2022-09-16T05:44:21;16.05;;;10.82;;
34200;SDS011;20469;55.638;37.670;2022-09-16T05:46:49;17.52;;;11.95;;
34200;SDS011;20469;55.638;37.670;2022-09-16T05:49:18;18.15;;;11.90;;
34200;SDS011;20469;55.638;37.670;2022-09-16T05:51:47;15.20;;;11.52;;
34200;SDS011;20469;55.638;37.670;2022-09-16T05:54:15;16.33;;;11.02;;
34200;SDS011;20469;55.638;37.670;2022-09-16T05:56:46;15.07;;;11.32;;
34200;SDS011;20469;55.638;37.670;2022-09-16T05:59:14;16.52;;;11.07;;
34200;SDS011;20469;55.638;37.670;2022-09-16T06:01:43;13.63;;;10.55;;
34200;SDS011;20469;55.638;37.670;2022-09-16T06:04:12;16.50;;;11.52;;
34200;SDS011;20469;55.638;37.670;2022-09-16T06:06:41;13.93;;;10.40;;
34200;SDS011;20469;55.638;37.670;2022-09-16T06:09:12;14.73;;;11.27;;
34200;SDS011;20469;55.638;37.670;2022-09-16T06:11:43;15.25;;;10.80;;
34200;SDS011;20469;55.638;37.670;2022-09-16T06:14:12;15.88;;;11.63;;
34200;SDS011;20469;55.638;37.670;2022-09-16T06:16:41;15.13;;;10.75;;
34200;SDS011;20469;55.638;37.670;2022-09-16T06:19:10;13.90;;;11.32;;
34200;SDS011;20469;55.638;37.670;2022-09-16T06:21:40;15.93;;;10.68;;
34200;SDS011;20469;55.638;37.670;2022-09-16T06:24:09;15.40;;;10.82;;
34200;SDS011;20469;55.638;37.670;2022-09-16T06:26:40;13.73;;;10.63;;
34200;SDS011;20469;55.638;37.670;2022-09-16T06:29:09;14.85;;;11.25;;
34200;SDS011;20469;55.638;37.670;2022-09-16T06:31:37;14.10;;;10.95;;
34200;SDS011;20469;55.638;37.670;2022-09-16T06:34:06;17.55;;;11.63;;
34200;SDS011;20469;55.638;37.670;2022-09-16T06:36:36;15.13;;;11.52;;
34200;SDS011;20469;55.638;37.670;2022-09-16T06:39:11;14.70;;;11.23;;
34200;SDS011;20469;55.638;37.670;2022-09-16T06:41:40;16.38;;;10.90;;
34200;SDS011;20469;55.638;37.670;2022-09-16T06:44:07;17.70;;;11.45;;
34200;SDS011;20469;55.638;37.670;2022-09-16T06:46:35;15.32;;;10.07;;
34200;SDS011;20469;55.638;37.670;2022-09-16T06:49:03;14.32;;;10.55;;
34200;SDS011;20469;55.638;37.670;2022-09-16T06:51:32;15.05;;;10.80;;
34200;SDS011;20469;55.638;37.670;2022-09-16T06:54:01;16.25;;;10.90;;
34200;SDS011;20469;55.638;37.670;2022-09-16T06:56:31;16.85;;;12.40;;
34200;SDS011;20469;55.638;37.670;2022-09-16T06:59:02;14.65;;;10.70;;
34200;SDS011;20469;55.638;37.670;2022-09-16T07:01:30;15.55;;;10.70;;
34200;SDS011;20469;55.638;37.670;2022-09-16T07:04:00;15.77;;;11.02;;
34200;SDS011;20469;55.638;37.670;2022-09-16T07:06:31;16.38;;;10.32;;
34200;SDS011;20469;55.638;37.670;2022-09-16T07:09:20;14.55;;;10.98;;
34200;SDS011;20469;55.638;37.670;2022-09-16T07:11:50;17.27;;;10.30;;
34200;SDS011;20469;55.638;37.670;2022-09-16T07:14:18;15.00;;;9.88;;
34200;SDS011;20469;55.638;37.670;2022-09-16T07:16:47;11.10;;;9.50;;
34200;SDS011;20469;55.638;37.670;2022-09-16T07:19:15;12.25;;;8.65;;
34200;SDS011;20469;55.638;37.670;2022-09-16T07:21:43;13.30;;;9.27;;
34200;SDS011;20469;55.638;37.670;2022-09-16T07:24:12;12.73;;;10.02;;
34200;SDS011;20469;55.638;37.670;2022-09-16T07:26:40;10.90;;;9.50;;
34200;SDS011;20469;55.638;37.670;2022-09-16T07:29:10;14.15;;;10.13;;
34200;SDS011;20469;55.638;37.670;2022-09-16T07:31:40;12.27;;;9.40;;
34200;SDS011;20469;55.638;37.670;2022-09-16T07:34:08;14.65;;;9.55;;
34200;SDS011;20469;55.638;37.670;2022-09-16T07:36:41;13.90;;;10.57;;
34200;SDS011;20469;55.638;37.670;2022-09-16T07:39:12;13.13;;;9.15;;
34200;SDS011;20469;55.638;37.670;2022-09-16T07:41:42;13.77;;;9.90;;
34200;SDS011;20469;55.638;37.670;2022-09-16T07:44:12;14.80;;;9.32;;
34200;SDS011;20469;55.638;37.670;2022-09-16T07:46:42;12.13;;;8.90;;
34200;SDS011;20469;55.638;37.670;2022-09-16T07:49:11;14.48;;;9.15;;
34200;SDS011;20469;55.638;37.670;2022-09-16T07:51:40;12.27;;;9.80;;
34200;SDS011;20469;55.638;37.670;2022-09-16T07:54:10;10.80;;;9.70;;
34200;SDS011;20469;55.638;37.670;2022-09-16T07:56:39;16.40;;;8.18;;
34200;SDS011;20469;55.638;37.670;2022-09-16T07:59:09;12.93;;;8.27;;
34200;SDS011;20469;55.638;37.670;2022-09-16T08:01:44;10.38;;;7.75;;
34200;SDS011;20469;55.638;37.670;2022-09-16T08:04:27;9.30;;;7.55;;
34200;SDS011;20469;55.638;37.670;2022-09-16T08:06:55;10.27;;;7.85;;
34200;SDS011;20469;55.638;37.670;2022-09-16T08:09:22;9.25;;;8.20;;
34200;SDS011;20469;55.638;37.670;2022-09-16T08:12:05;9.40;;;8.40;;
34200;SDS011;20469;55.638;37.670;2022-09-16T08:14:36;10.55;;;8.40;;
34200;SDS011;20469;55.638;37.670;2022-09-16T08:17:04;9.77;;;8.48;;
34200;SDS011;20469;55.638;37.670;2022-09-16T08:19:33;9.48;;;8.35;;
34200;SDS011;20469;55.638;37.670;2022-09-16T08:22:01;13.27;;;8.15;;
34200;SDS011;20469;55.638;37.670;2022-09-16T08:24:28;10.68;;;8.07;;
34200;SDS011;20469;55.638;37.670;2022-09-16T08:26:56;13.43;;;7.68;;
34200;SDS011;20469;55.638;37.670;2022-09-16T08:29:24;9.93;;;7.63;;
34200;SDS011;20469;55.638;37.670;2022-09-16T08:32:07;8.80;;;7.53;;
34200;SDS011;20469;55.638;37.670;2022-09-16T08:34:34;9.45;;;7.32;;
34200;SDS011;20469;55.638;37.670;2022-09-16T08:37:04;13.20;;;11.35;;
34200;SDS011;20469;55.638;37.670;2022-09-16T08:39:32;12.20;;;7.15;;
34200;SDS011;20469;55.638;37.670;2022-09-16T08:47:58;12.13;;;8.77;;
34200;SDS011;20469;55.638;37.670;2022-09-16T08:50:44;11.55;;;7.47;;
34200;SDS011;20469;55.638;37.670;2022-09-16T08:53:17;8.48;;;7.63;;
34200;SDS011;20469;55.638;37.670;2022-09-16T08:56:02;9.80;;;7.55;;
34200;SDS011;20469;55.638;37.670;2022-09-16T08:58:35;12.38;;;9.05;;
34200;SDS011;20469;55.638;37.670;2022-09-16T09:03:56;9.65;;;7.90;;
34200;SDS011;20469;55.638;37.670;2022-09-16T09:06:27;12.55;;;8.52;;
34200;SDS011;20469;55.638;37.670;2022-09-16T09:12:38;9.60;;;8.23;;
34200;SDS011;20469;55.638;37.670;2022-09-16T09:15:23;10.55;;;8.32;;
34200;SDS011;20469;55.638;37.670;2022-09-16T09:21:06;10.00;;;7.85;;
34200;SDS011;20469;55.638;37.670;2022-09-16T09:23:49;9.70;;;8.20;;
34200;SDS011;20469;55.638;37.670;2022-09-16T09:26:31;10.88;;;8.18;;
34200;SDS011;20469;55.638;37.670;2022-09-16T09:29:16;10.23;;;7.78;;
34200;SDS011;20469;55.638;37.670;2022-09-16T09:31:56;11.90;;;7.70;;
34200;SDS011;20469;55.638;37.670;2022-09-16T09:34:47;9.13;;;7.40;;
34200;SDS011;20469;55.638;37.670;2022-09-16T09:37:43;9.13;;;7.30;;
34200;SDS011;20469;55.638;37.670;2022-09-16T09:40:30;9.27;;;6.47;;
34200;SDS011;20469;55.638;37.670;2022-09-16T09:45:55;6.85;;;5.80;;
34200;SDS011;20469;55.638;37.670;2022-09-16T09:48:29;11.50;;;6.50;;
34200;SDS011;20469;55.638;37.670;2022-09-16T09:51:24;8.73;;;6.05;;
34200;SDS011;20469;55.638;37.670;2022-09-16T09:54:26;6.88;;;5.85;;
34200;SDS011;20469;55.638;37.670;2022-09-16T09:56:57;7.45;;;5.00;;
34200;SDS011;20469;55.638;37.670;2022-09-16T09:59:32;6.57;;;5.30;;
34200;SDS011;20469;55.638;37.670;2022-09-16T10:02:19;8.98;;;5.60;;
34200;SDS011;20469;55.638;37.670;2022-09-16T10:04:48;6.38;;;5.68;;
34200;SDS011;20469;55.638;37.670;2022-09-16T10:07:18;6.93;;;5.18;;
34200;SDS011;20469;55.638;37.670;2022-09-16T10:09:51;8.85;;;5.97;;
34200;SDS011;20469;55.638;37.670;2022-09-16T10:12:27;10.68;;;6.15;;
34200;SDS011;20469;55.638;37.670;2022-09-16T10:14:59;8.82;;;6.13;;
34200;SDS011;20469;55.638;37.670;2022-09-16T10:17:29;8.07;;;5.97;;
34200;SDS011;20469;55.638;37.670;2022-09-16T10:19:59;10.02;;;5.78;;
34200;SDS011;20469;55.638;37.670;2022-09-16T10:22:33;6.25;;;5.25;;
34200;SDS011;20469;55.638;37.670;2022-09-16T10:25:03;6.57;;;5.38;;
34200;SDS011;20469;55.638;37.670;2022-09-16T10:27:35;10.00;;;5.75;;
34200;SDS011;20469;55.638;37.670;2022-09-16T10:30:05;9.07;;;5.55;;
34200;SDS011;20469;55.638;37.670;2022-09-16T10:32:48;5.50;;;4.95;;
34200;SDS011;20469;55.638;37.670;2022-09-16T10:35:21;7.22;;;5.07;;
34200;SDS011;20469;55.638;37.670;2022-09-16T10:37:52;8.18;;;5.38;;
34200;SDS011;20469;55.638;37.670;2022-09-16T10:40:25;9.95;;;5.10;;
34200;SDS011;20469;55.638;37.670;2022-09-16T10:42:56;8.23;;;4.50;;
34200;SDS011;20469;55.638;37.670;2022-09-16T10:45:30;6.00;;;4.70;;
34200;SDS011;20469;55.638;37.670;2022-09-16T10:48:05;6.07;;;4.93;;
34200;SDS011;20469;55.638;37.670;2022-09-16T10:53:29;6.18;;;4.57;;
34200;SDS011;20469;55.638;37.670;2022-09-16T10:56:15;6.57;;;4.60;;
34200;SDS011;20469;55.638;37.670;2022-09-16T10:58:45;7.32;;;4.40;;
34200;SDS011;20469;55.638;37.670;2022-09-16T11:09:59;7.05;;;4.78;;
34200;SDS011;20469;55.638;37.670;2022-09-16T11:12:48;5.47;;;4.85;;
34200;SDS011;20469;55.638;37.670;2022-09-16T11:15:42;10.70;;;5.28;;
34200;SDS011;20469;55.638;37.670;2022-09-16T11:24:40;7.15;;;5.30;;
34200;SDS011;20469;55.638;37.670;2022-09-16T11:29:56;10.95;;;5.70;;
34200;SDS011;20469;55.638;37.670;2022-09-16T11:38:29;10.48;;;6.07;;
34200;SDS011;20469;55.638;37.670;2022-09-16T11:41:19;11.82;;;6.63;;
34200;SDS011;20469;55.638;37.670;2022-09-16T11:49:42;14.00;;;6.60;;
34200;SDS011;20469;55.638;37.670;2022-09-16T11:52:35;11.88;;;6.45;;
34200;SDS011;20469;55.638;37.670;2022-09-16T11:55:40;11.50;;;6.30;;
34200;SDS011;20469;55.638;37.670;2022-09-16T12:01:18;14.30;;;6.72;;
34200;SDS011;20469;55.638;37.670;2022-09-16T12:04:12;10.82;;;6.28;;
34200;SDS011;20469;55.638;37.670;2022-09-16T12:12:32;7.45;;;5.88;;
34200;SDS011;20469;55.638;37.670;2022-09-16T12:15:06;9.35;;;6.03;;
34200;SDS011;20469;55.638;37.670;2022-09-16T12:17:59;8.88;;;5.55;;
34200;SDS011;20469;55.638;37.670;2022-09-16T12:20:35;8.77;;;5.22;;
34200;SDS011;20469;55.638;37.670;2022-09-16T12:23:14;10.27;;;5.68;;
34200;SDS011;20469;55.638;37.670;2022-09-16T12:25:51;6.53;;;4.82;;
34200;SDS011;20469;55.638;37.670;2022-09-16T12:28:45;8.32;;;5.55;;
34200;SDS011;20469;55.638;37.670;2022-09-16T12:31:23;8.50;;;5.32;;
34200;SDS011;20469;55.638;37.670;2022-09-16T12:34:12;8.18;;;5.30;;
34200;SDS011;20469;55.638;37.670;2022-09-16T12:36:48;7.68;;;5.57;;
34200;SDS011;20469;55.638;37.670;2022-09-16T12:39:21;9.93;;;5.82;;
34200;SDS011;20469;55.638;37.670;2022-09-16T12:41:58;10.07;;;5.97;;
34200;SDS011;20469;55.638;37.670;2022-09-16T12:50:52;10.85;;;6.10;;
34200;SDS011;20469;55.638;37.670;2022-09-16T12:59:21;9.45;;;6.80;;
34200;SDS011;20469;55.638;37.670;2022-09-16T13:02:10;12.18;;;7.60;;
34200;SDS011;20469;55.638;37.670;2022-09-16T13:04:44;15.30;;;7.32;;
34200;SDS011;20469;55.638;37.670;2022-09-16T13:10:02;10.68;;;6.80;;
34200;SDS011;20469;55.638;37.670;2022-09-16T13:12:33;11.23;;;7.30;;
34200;SDS011;20469;55.638;37.670;2022-09-16T13:15:21;12.55;;;7.28;;
34200;SDS011;20469;55.638;37.670;2022-09-16T13:21:01;9.80;;;6.97;;
34200;SDS011;20469;55.638;37.670;2022-09-16T13:23:39;10.43;;;6.78;;
34200;SDS011;20469;55.638;37.670;2022-09-16T13:26:11;10.80;;;6.93;;
34200;SDS011;20469;55.638;37.670;2022-09-16T13:28:41;9.05;;;6.28;;
34200;SDS011;20469;55.638;37.670;2022-09-16T13:31:15;9.00;;;6.90;;
34200;SDS011;20469;55.638;37.670;2022-09-16T13:33:46;7.63;;;6.15;;
34200;SDS011;20469;55.638;37.670;2022-09-16T13:36:30;7.85;;;5.90;;
34200;SDS011;20469;55.638;37.670;2022-09-16T13:39:00;10.43;;;6.75;;
34200;SDS011;20469;55.638;37.670;2022-09-16T13:49:52;8.98;;;7.10;;
34200;SDS011;20469;55.638;37.670;2022-09-16T13:52:27;9.85;;;7.75;;
34200;SDS011;20469;55.638;37.670;2022-09-16T13:54:58;9.05;;;6.93;;
34200;SDS011;20469;55.638;37.670;2022-09-16T13:57:43;10.32;;;7.70;;
34200;SDS011;20469;55.638;37.670;2022-09-16T14:03:07;10.77;;;7.50;;
34200;SDS011;20469;55.638;37.670;2022-09-16T14:08:44;8.70;;;6.60;;
34200;SDS011;20469;55.638;37.670;2022-09-16T14:11:33;6.40;;;5.65;;
34200;SDS011;20469;55.638;37.670;2022-09-16T14:14:19;6.90;;;5.72;;
34200;SDS011;20469;55.638;37.670;2022-09-16T14:19:55;6.47;;;5.88;;
34200;SDS011;20469;55.638;37.670;2022-09-16T14:22:25;7.78;;;6.28;;
34200;SDS011;20469;55.638;37.670;2022-09-16T14:24:54;8.93;;;5.60;;
34200;SDS011;20469;55.638;37.670;2022-09-16T14:27:41;9.45;;;6.32;;
34200;SDS011;20469;55.638;37.670;2022-09-16T14:30:15;8.90;;;6.55;;
34200;SDS011;20469;55.638;37.670;2022-09-16T14:32:45;9.98;;;6.70;;
34200;SDS011;20469;55.638;37.670;2022-09-16T14:35:17;8.38;;;6.68;;
34200;SDS011;20469;55.638;37.670;2022-09-16T14:37:49;10.23;;;7.15;;
34200;SDS011;20469;55.638;37.670;2022-09-16T14:40:21;9.02;;;6.75;;
34200;SDS011;20469;55.638;37.670;2022-09-16T14:42:52;9.77;;;7.45;;
34200;SDS011;20469;55.638;37.670;2022-09-16T14:45:25;9.48;;;6.55;;
34200;SDS011;20469;55.638;37.670;2022-09-16T14:47:55;9.93;;;7.65;;
34200;SDS011;20469;55.638;37.670;2022-09-16T14:50:26;8.88;;;7.38;;
34200;SDS011;20469;55.638;37.670;2022-09-16T14:52:57;9.27;;;7.10;;
34200;SDS011;20469;55.638;37.670;2022-09-16T14:55:29;11.43;;;7.22;;
34200;SDS011;20469;55.638;37.670;2022-09-16T14:57:59;9.88;;;7.60;;
34200;SDS011;20469;55.638;37.670;2022-09-16T15:00:29;8.40;;;7.03;;
34200;SDS011;20469;55.638;37.670;2022-09-16T15:03:11;9.73;;;7.38;;
34200;SDS011;20469;55.638;37.670;2022-09-16T15:05:44;10.65;;;7.32;;
34200;SDS011;20469;55.638;37.670;2022-09-16T15:11:03;10.30;;;6.57;;
34200;SDS011;20469;55.638;37.670;2022-09-16T15:13:58;9.82;;;7.20;;
34200;SDS011;20469;55.638;37.670;2022-09-16T15:16:26;11.23;;;7.50;;
34200;SDS011;20469;55.638;37.670;2022-09-16T15:18:56;8.25;;;7.05;;
34200;SDS011;20469;55.638;37.670;2022-09-16T15:21:29;11.20;;;7.18;;
34200;SDS011;20469;55.638;37.670;2022-09-16T15:24:03;8.05;;;6.07;;
34200;SDS011;20469;55.638;37.670;2022-09-16T15:26:43;9.30;;;7.40;;
34200;SDS011;20469;55.638;37.670;2022-09-16T15:29:25;11.57;;;7.43;;
34200;SDS011;20469;55.638;37.670;2022-09-16T15:34:44;9.45;;;7.82;;
34200;SDS011;20469;55.638;37.670;2022-09-16T15:37:26;10.85;;;7.80;;
34200;SDS011;20469;55.638;37.670;2022-09-16T15:42:47;13.63;;;9.82;;
34200;SDS011;20469;55.638;37.670;2022-09-16T15:45:27;10.63;;;7.93;;
34200;SDS011;20469;55.638;37.670;2022-09-16T15:47:57;10.73;;;8.32;;
34200;SDS011;20469;55.638;37.670;2022-09-16T15:50:36;11.13;;;8.35;;
34200;SDS011;20469;55.638;37.670;2022-09-16T15:53:12;13.10;;;8.25;;
34200;SDS011;20469;55.638;37.670;2022-09-16T15:55:57;12.45;;;8.25;;
34200;SDS011;20469;55.638;37.670;2022-09-16T15:58:34;11.15;;;8.65;;
34200;SDS011;20469;55.638;37.670;2022-09-16T16:04:04;13.50;;;9.07;;
34200;SDS011;20469;55.638;37.670;2022-09-16T16:06:43;10.93;;;8.77;;
34200;SDS011;20469;55.638;37.670;2022-09-16T16:12:07;11.93;;;9.80;;
34200;SDS011;20469;55.638;37.670;2022-09-16T16:14:37;13.43;;;10.32;;
34200;SDS011;20469;55.638;37.670;2022-09-16T16:17:10;14.05;;;10.75;;
34200;SDS011;20469;55.638;37.670;2022-09-16T16:19:41;13.95;;;9.98;;
34200;SDS011;20469;55.638;37.670;2022-09-16T16:22:11;12.90;;;10.18;;
34200;SDS011;20469;55.638;37.670;2022-09-16T16:24:40;11.48;;;9.68;;
34200;SDS011;20469;55.638;37.670;2022-09-16T16:27:08;11.10;;;9.70;;
34200;SDS011;20469;55.638;37.670;2022-09-16T16:29:36;11.63;;;10.40;;
34200;SDS011;20469;55.638;37.670;2022-09-16T16:32:06;11.23;;;9.95;;
34200;SDS011;20469;55.638;37.670;2022-09-16T16:34:38;11.82;;;9.88;;
34200;SDS011;20469;55.638;37.670;2022-09-16T16:37:11;11.75;;;9.98;;
34200;SDS011;20469;55.638;37.670;2022-09-16T16:40:04;11.88;;;9.70;;
34200;SDS011;20469;55.638;37.670;2022-09-16T16:42:34;11.82;;;9.98;;
34200;SDS011;20469;55.638;37.670;2022-09-16T16:45:02;13.90;;;10.23;;
34200;SDS011;20469;55.638;37.670;2022-09-16T16:47:31;11.40;;;9.77;;
34200;SDS011;20469;55.638;37.670;2022-09-16T16:50:01;8.80;;;7.85;;
34200;SDS011;20469;55.638;37.670;2022-09-16T16:52:32;10.30;;;8.75;;
34200;SDS011;20469;55.638;37.670;2022-09-16T16:55:01;10.05;;;9.05;;
34200;SDS011;20469;55.638;37.670;2022-09-16T16:57:29;10.05;;;8.18;;
34200;SDS011;20469;55.638;37.670;2022-09-16T16:59:58;14.55;;;11.95;;
34200;SDS011;20469;55.638;37.670;2022-09-16T17:02:27;10.70;;;9.60;;
34200;SDS011;20469;55.638;37.670;2022-09-16T17:04:55;9.98;;;8.90;;
34200;SDS011;20469;55.638;37.670;2022-09-16T17:07:23;10.27;;;8.68;;
34200;SDS011;20469;55.638;37.670;2022-09-16T17:09:53;10.32;;;8.63;;